AirNav   Pilot Hours Calculator
 
 973 users online  

CO10 Lemons Private Strip Airport
Boulder, Colorado, USA

GOING TO BOULDER?


FAA INFORMATION EFFECTIVE 04 NOVEMBER 2021

Location

FAA Identifier: CO10
Lat/Long: 39-59-40.9470N 105-13-25.9570W
39-59.682450N 105-13.432617W
39.9947075,-105.2238769
(estimated)
Elevation: 5230 ft. / 1594 m (estimated)
Variation: 12E (1985)
Time zone: UTC -6 (UTC -7 during Standard Time)
Zip code: 80303

Airport Operations

Airport use: Private use. Permission required prior to landing
Activation date: 10/1976
Control tower: no
ARTCC: DENVER CENTER
FSS: DENVER FLIGHT SERVICE STATION
Attendance: UNATNDD
Wind indicator: no
Segmented circle: no

Airport Communications

WX AWOS-3 at BDU (2.7 nm N): 118.825 (303-541-9540)
WX AWOS-3 at BJC (7 nm SE): PHONE 720-887-8067
WX AWOS-3 at EIK (8 nm E): 133.825 (303-604-4339)
WX AWOS-3 at LMO (11 nm N): 120.0 (303-684-7545)

Nearby radio navigation aids

VOR radial/distance  VOR name  Freq  Var
BJCr310/6.3JEFFCO VOR/DME115.4011E
DENr285/28.1DENVER VOR/DME117.9008E
DVVr274/28.2MILE HIGH VORTAC114.7008E
FQFr292/33.2FALCON VORTAC116.3011E

Airport Services

Runway Information

Runway N/S

Dimensions: 3000 x 75 ft. / 914 x 23 m
Surface: turf/gravel
RUNWAY N  RUNWAY S
Traffic pattern: leftleft
Obstructions: pline
1/2 MI S OF N/S RWY.
pline

Airport Ownership and Management from official FAA records

Ownership: Privately-owned
Owner: DELMAR & CLARA LEMONS TRUST
5552 BASELINE RD
BOULDER, CO 80303
Phone 303-817-6393
TRUST FOR BENEFICIARY OF R. DARRELL LEMONS.
Manager: DARRELL LEMONS
5552 BASELINE RD
BOULDER, CO 80303
Phone 303-817-6393

Airport Operational Statistics

Aircraft based on the field: 1
Single engine airplanes: 1
    

Additional Remarks

FOR CD CTC DENVER APCH AT 303-342-1916.

Instrument Procedures

There are no published instrument procedures at CO10.

Some nearby airports with instrument procedures:

KBJC - Rocky Mountain Metro Airport (7 nm SE)
KEIK - Erie Municipal Airport (8 nm E)
KLMO - Vance Brand Airport (11 nm N)
KDEN - Denver International Airport (27 nm E)
KBKF - Buckley Air Force Base (28 nm SE)
 
Loc | Ops | Rwys | IFR | FBO | Links
Com | Nav | Svcs | Stats | Notes

AirBoss

 
Area around CO10 (Lemons Private Strip Airport)
 
Road maps at: MapQuest Bing Google
 
Aerial photo
No photo
 
Sectional chart

 
Airport distance calculator
Flying to Lemons Private Strip Airport? Find the distance to fly.

From to CO10

Sunrise and sunset
Times for 30-Nov-2021
 Local
(UTC-7)
 Zulu
(UTC)
Morning civil twilight06:3413:34
Sunrise07:0414:04
Sunset16:3623:36
Evening civil twilight17:0600:06

Current date and time
Zulu (UTC)  01-Dec-2021 04:11:50
Local (UTC-7)  30-Nov-2021 21:11:50
 
METAR
K1V5 
3nm N 
AWOS 118.825 303-541-9540
No observation available
KBDU 
3nm N 
010355Z AUTO 27011G17KT 10SM CLR 13/M13 A3008 RMK AO2
KBJC 
7nm SE 
010345Z 29015KT 10SM SCT150 09/M11 A3010
KEIK 
8nm E 
010355Z AUTO 25005KT 10SM CLR 04/M04 A3009 RMK AO2 T00361041 PWINO
KLMO 
11nm N 
010355Z AUTO 00000KT 7SM CLR 04/M03 A3012 RMK AO2 T00431029
TAF
KBJC 
7nm SE 
010205Z 0102/0124 31013KT P6SM SCT110 BKN200 FM010500 25011KT P6SM SCT110 BKN200 FM011200 23010KT P6SM SCT250 FM011600 27010KT P6SM SCT250
NOTAMs
Click for the latest NOTAMs
NOTAMs are issued by the DoD/FAA and will open in a separate window not controlled by AirNav.

 

 
 

Would you like to see your business listed on this page?

 If your business provides an interesting product or service to pilots, flight crews, aircraft, or users of the Lemons Private Strip Airport, you should consider listing it here.  To start the listing process, click on the button below
 
Add a business
 

Other Pages about Lemons Private Strip Airport

Update a link
 
Copyright © AirNav, LLC. All rights reserved. Privacy Policy  Contact